Time;durP1;ratioP1;P1;durP2;ratioP2;P2;SDS_P1;SDS_P2;PMS_P1;PMS_P2;Temp;Humidity;BMP_temperature;BMP_pressure;BME280_temperature;BME280_humidity;BME280_pressure;Samples;Min_cycle;Max_cycle;Signal;HPM_P1;HPM_P2
2023/12/01 00:00:34;;;;;;;75.85;35.15;;;;;;;6.37;80.82;99865.38;4887565;29;20340;-83
2023/12/01 00:03:01;;;;;;;74.80;35.50;;;;;;;5.77;81.68;99770.13;4930885;28;20055;-84
2023/12/01 00:05:28;;;;;;;76.32;36.88;;;;;;;6.22;82.17;99864.00;4922960;28;20441;-82
2023/12/01 00:07:54;;;;;;;72.18;37.30;;;;;;;5.21;81.53;99710.59;4936627;28;20350;-82
2023/12/01 00:10:22;;;;;;;75.35;35.17;;;;;;;5.88;81.85;99808.78;4916917;28;20055;-82
2023/12/01 00:12:48;;;;;;;75.93;36.72;;;;;;;6.14;81.62;99846.16;4946052;28;20530;-83
2023/12/01 00:15:15;;;;;;;75.32;36.60;;;;;;;6.41;81.96;99899.25;4945309;28;20490;-84
2023/12/01 00:17:42;;;;;;;77.70;38.42;;;;;;;6.36;81.72;99893.53;4938015;28;20055;-83
2023/12/01 00:20:09;;;;;;;78.53;37.40;;;;;;;6.18;82.14;99837.88;4917555;28;20054;-83
2023/12/01 00:22:36;;;;;;;79.10;37.55;;;;;;;6.41;82.23;99864.16;4938394;28;20238;-84
2023/12/01 00:25:03;;;;;;;74.47;36.05;;;;;;;6.19;81.60;99812.38;4921527;28;20463;-83
2023/12/01 00:27:30;;;;;;;74.13;35.00;;;;;;;6.38;81.87;99853.84;4938675;28;20468;-83
2023/12/01 00:29:57;;;;;;;68.70;35.00;;;;;;;6.35;82.10;99867.28;4945928;28;20057;-82
2023/12/01 00:32:24;;;;;;;66.13;32.33;;;;;;;6.07;81.75;99801.06;4933019;28;20051;-83
2023/12/01 00:34:50;;;;;;;61.80;33.25;;;;;;;6.29;81.75;99823.00;4938131;28;20146;-83
2023/12/01 00:37:20;;;;;;;63.97;32.05;;;;;;;5.97;81.60;99765.88;4947337;28;20278;-84
2023/12/01 00:39:47;;;;;;;64.65;31.92;;;;;;;6.08;81.05;99805.34;4938313;28;20339;-82
2023/12/01 00:42:14;;;;;;;64.72;33.63;;;;;;;6.48;80.98;99854.78;4931874;28;20398;-82
2023/12/01 00:44:40;;;;;;;61.50;32.22;;;;;;;6.44;81.54;99856.00;4931747;28;20330;-82
2023/12/01 00:47:08;;;;;;;66.40;33.78;;;;;;;5.19;81.49;99669.59;4941506;28;20062;-82
2023/12/01 00:49:35;;;;;;;57.95;31.25;;;;;;;6.20;81.52;99830.69;4944475;28;20059;-82
2023/12/01 00:52:04;;;;;;;64.72;33.67;;;;;;;6.41;82.04;99848.34;4926014;28;20801;-83
2023/12/01 00:54:32;;;;;;;57.47;29.13;;;;;;;6.41;80.72;99854.44;4944755;28;20054;-84
2023/12/01 00:56:59;;;;;;;55.65;31.13;;;;;;;6.34;80.43;99844.53;4941341;28;20544;-83
2023/12/01 00:59:26;;;;;;;61.35;30.45;;;;;;;6.48;80.93;99870.59;4934965;28;20082;-83
2023/12/01 01:01:53;;;;;;;58.78;31.15;;;;;;;6.38;80.74;99869.66;4928350;28;20128;-83
2023/12/01 01:04:23;;;;;;;61.42;33.20;;;;;;;6.35;81.05;99854.09;4915191;28;20117;-82
2023/12/01 01:06:50;;;;;;;59.65;32.67;;;;;;;6.42;81.21;99860.53;4944818;28;20542;-82
2023/12/01 01:09:17;;;;;;;54.60;31.15;;;;;;;6.41;81.27;99859.72;4933974;28;20142;-81
2023/12/01 01:11:51;;;;;;;59.08;31.77;;;;;;;6.34;81.68;99858.56;4929126;28;20047;-82
2023/12/01 01:14:19;;;;;;;64.70;31.65;;;;;;;6.28;81.06;99842.41;4938589;28;20081;-81
2023/12/01 01:16:51;;;;;;;64.85;33.40;;;;;;;5.98;80.12;99784.19;4922439;28;20094;-82
2023/12/01 01:19:19;;;;;;;59.15;30.88;;;;;;;6.01;80.73;99798.91;4934576;28;20058;-83
2023/12/01 01:21:50;;;;;;;62.88;32.47;;;;;;;6.26;81.39;99841.69;4935529;28;20055;-83
2023/12/01 01:24:17;;;;;;;61.58;32.55;;;;;;;6.32;81.24;99855.19;4934125;28;20050;-82
2023/12/01 01:26:44;;;;;;;63.00;32.20;;;;;;;6.40;80.80;99863.28;4929576;28;20054;-84
2023/12/01 01:29:11;;;;;;;68.68;32.83;;;;;;;6.46;80.67;99861.13;4900782;28;20340;-81
2023/12/01 01:31:38;;;;;;;59.70;32.35;;;;;;;6.46;80.72;99861.97;4933057;28;20390;-80
2023/12/01 01:34:04;;;;;;;58.70;33.10;;;;;;;6.25;81.51;99822.41;4936486;28;20137;-81
2023/12/01 01:36:32;;;;;;;51.20;29.75;;;;;;;6.16;80.37;99808.19;4936050;28;20514;-81
2023/12/01 01:38:59;;;;;;;54.83;30.05;;;;;;;6.48;80.36;99832.81;4949910;28;20054;-81
2023/12/01 01:41:26;;;;;;;58.83;31.10;;;;;;;6.46;80.41;99840.88;4935389;28;20054;-84
2023/12/01 01:43:52;;;;;;;54.58;30.00;;;;;;;6.37;81.09;99833.72;4940991;28;20046;-79
2023/12/01 01:46:20;;;;;;;56.50;29.15;;;;;;;6.37;81.09;99844.28;4934666;28;20725;-81
2023/12/01 01:48:47;;;;;;;54.97;31.17;;;;;;;6.22;81.31;99821.84;4935416;28;20051;-83
2023/12/01 01:51:15;;;;;;;58.80;32.60;;;;;;;6.40;81.21;99830.84;4930572;28;20504;-83
2023/12/01 01:53:41;;;;;;;59.55;30.80;;;;;;;6.44;81.13;99852.53;4925526;28;20047;-82
2023/12/01 01:56:12;;;;;;;57.53;30.67;;;;;;;6.29;80.91;99830.91;4928940;28;20540;-81
2023/12/01 01:58:41;;;;;;;57.15;30.67;;;;;;;6.38;81.42;99848.56;4923583;28;20109;-81
2023/12/01 02:01:10;;;;;;;61.90;32.03;;;;;;;6.43;81.57;99835.84;4933942;28;20098;-82
2023/12/01 02:03:37;;;;;;;63.40;33.30;;;;;;;5.89;81.43;99736.69;4938515;28;20073;-81
2023/12/01 02:06:07;;;;;;;64.60;30.98;;;;;;;6.45;81.15;99822.53;4943732;28;20042;-82
2023/12/01 02:08:36;;;;;;;61.53;33.55;;;;;;;6.38;81.03;99811.66;4927508;28;20077;-82
2023/12/01 02:11:03;;;;;;;61.47;32.88;;;;;;;6.46;80.82;99808.38;4924723;28;20051;-82
2023/12/01 02:13:30;;;;;;;58.55;30.38;;;;;;;6.47;81.27;99813.53;4923041;28;20051;-80
2023/12/01 02:15:59;;;;;;;66.13;33.45;;;;;;;6.34;80.48;99791.81;4929663;28;20441;-82
2023/12/01 02:18:31;;;;;;;59.95;32.88;;;;;;;6.42;80.13;99787.56;4933339;28;20050;-80
2023/12/01 02:20:58;;;;;;;66.30;33.20;;;;;;;6.53;80.44;99820.94;4938187;28;20101;-80
2023/12/01 02:23:26;;;;;;;70.63;35.20;;;;;;;6.18;79.98;99769.38;4924782;28;20408;-82
2023/12/01 02:25:57;;;;;;;73.10;35.95;;;;;;;6.52;79.83;99819.25;4934700;28;20055;-82
2023/12/01 02:28:25;;;;;;;76.70;36.33;;;;;;;6.48;79.14;99778.31;4941292;28;20049;-83
2023/12/01 02:30:54;;;;;;;72.00;36.13;;;;;;;6.27;79.34;99767.75;4946073;28;20058;-83
2023/12/01 02:33:22;;;;;;;72.13;36.65;;;;;;;6.30;79.86;99803.56;4929790;29;20154;-82
2023/12/01 02:35:53;;;;;;;68.55;34.90;;;;;;;6.03;78.96;99744.31;4911989;29;20047;-82
2023/12/01 02:38:20;;;;;;;65.67;33.83;;;;;;;6.48;79.30;99790.63;4904377;29;20473;-82
2023/12/01 02:40:50;;;;;;;65.60;34.05;;;;;;;6.40;79.51;99805.28;4902561;29;20917;-81
2023/12/01 02:43:19;;;;;;;72.43;36.20;;;;;;;6.24;79.77;99775.94;4914056;28;20567;-83
2023/12/01 02:45:50;;;;;;;65.50;35.55;;;;;;;6.47;79.67;99810.06;4909975;28;20704;-82
2023/12/01 02:48:17;;;;;;;61.55;33.50;;;;;;;6.34;79.64;99752.28;4927089;28;20070;-81
2023/12/01 02:50:47;;;;;;;68.25;34.05;;;;;;;6.09;79.48;99721.88;4920579;28;20117;-81
2023/12/01 02:53:17;;;;;;;74.13;36.22;;;;;;;6.37;79.93;99766.00;4908658;28;20047;-82
2023/12/01 02:55:45;;;;;;;68.22;37.17;;;;;;;6.28;80.41;99760.69;4912324;28;20046;-80
2023/12/01 02:58:13;;;;;;;66.68;34.75;;;;;;;6.35;80.51;99772.38;4911677;28;20476;-82
2023/12/01 03:00:42;;;;;;;67.00;35.63;;;;;;;6.29;81.02;99765.00;4903586;28;20137;-82
2023/12/01 03:03:10;;;;;;;63.03;34.03;;;;;;;5.83;80.34;99681.88;4919086;28;20179;-81
2023/12/01 03:05:36;;;;;;;64.78;34.20;;;;;;;6.44;80.26;99768.16;4912236;28;20422;-81
2023/12/01 03:08:03;;;;;;;64.70;33.22;;;;;;;6.46;80.33;99777.59;4938199;28;20515;-81
2023/12/01 03:10:30;;;;;;;65.72;36.05;;;;;;;6.48;79.90;99770.41;4922316;28;20425;-81
2023/12/01 03:13:02;;;;;;;65.97;34.15;;;;;;;6.32;79.71;99744.47;4932723;28;20057;-82
2023/12/01 03:15:34;;;;;;;62.22;34.92;;;;;;;6.38;79.41;99758.94;4911959;28;20138;-83
2023/12/01 03:18:01;;;;;;;67.55;34.85;;;;;;;6.13;79.88;99724.13;4913979;28;20051;-81
2023/12/01 03:20:29;;;;;;;67.15;34.47;;;;;;;6.24;80.13;99746.09;4898459;28;20420;-81
2023/12/01 03:22:56;;;;;;;66.78;35.63;;;;;;;6.51;80.20;99774.56;4931613;28;20250;-82
2023/12/01 03:25:22;;;;;;;69.30;34.95;;;;;;;6.01;79.66;99683.00;4926439;28;20061;-81
2023/12/01 03:27:53;;;;;;;63.28;33.78;;;;;;;6.50;79.48;99757.06;4916348;28;20051;-82
2023/12/01 03:30:20;;;;;;;63.22;33.28;;;;;;;6.22;79.62;99700.59;4928913;28;20223;-82
2023/12/01 03:32:49;;;;;;;74.22;35.63;;;;;;;6.44;79.18;99724.16;4915890;28;20546;-81
2023/12/01 03:35:20;;;;;;;68.47;35.15;;;;;;;6.01;79.64;99658.44;4924740;28;20489;-83
2023/12/01 03:37:55;;;;;;;66.43;34.05;;;;;;;6.50;79.95;99741.25;4929294;28;20058;-82
2023/12/01 03:40:23;;;;;;;;;;;;;;;6.18;79.89;99695.56;4896953;29;20062;-83
2023/12/01 03:42:50;;;;;;;73.93;35.63;;;;;;;6.54;79.37;99738.22;4926478;28;19926;-81
2023/12/01 03:45:17;;;;;;;71.88;35.55;;;;;;;6.53;79.38;99747.09;4919416;28;20266;-82
2023/12/01 03:47:46;;;;;;;67.85;35.90;;;;;;;6.53;79.27;99747.09;4916932;28;20141;-84
2023/12/01 03:50:14;;;;;;;67.85;35.40;;;;;;;6.54;79.29;99743.50;4917377;28;20576;-81
2023/12/01 03:52:43;;;;;;;71.93;36.58;;;;;;;6.49;79.12;99729.88;4923453;28;20473;-82
2023/12/01 03:55:11;;;;;;;68.93;36.55;;;;;;;6.56;79.17;99735.47;4938770;28;20074;-82
2023/12/01 03:57:39;;;;;;;67.75;34.55;;;;;;;6.30;78.41;99698.13;4920870;28;20210;-82
2023/12/01 04:00:08;;;;;;;72.22;39.85;;;;;;;6.32;79.06;99701.47;4908515;28;20141;-82
2023/12/01 04:02:40;;;;;;;69.55;37.10;;;;;;;6.43;79.39;99725.09;4925170;28;20070;-82
2023/12/01 04:05:16;;;;;;;64.88;36.58;;;;;;;6.35;79.46;99693.31;4923117;28;20133;-82
2023/12/01 04:07:51;;;;;;;69.53;38.50;;;;;;;6.34;79.57;99696.91;4913978;28;20046;-82
2023/12/01 04:10:21;;;;;;;69.43;35.78;;;;;;;6.44;79.67;99692.50;4908016;28;20066;-82
2023/12/01 04:12:48;;;;;;;68.07;36.38;;;;;;;6.40;80.18;99705.09;4904507;28;20046;-83
2023/12/01 04:15:17;;;;;;;64.82;34.83;;;;;;;6.19;79.70;99686.72;4933292;28;20046;-80
2023/12/01 04:17:49;;;;;;;72.03;38.03;;;;;;;6.06;79.33;99654.44;4932435;28;20053;-81
2023/12/01 04:20:27;;;;;;;72.78;35.63;;;;;;;6.52;79.80;99708.50;4941179;28;20489;-82
2023/12/01 04:22:59;;;;;;;74.18;37.13;;;;;;;6.53;78.65;99704.91;4937475;28;20050;-82
2023/12/01 04:25:27;;;;;;;71.15;36.75;;;;;;;5.90;79.18;99606.66;4945254;28;20059;-82
2023/12/01 04:28:00;;;;;;;69.15;35.10;;;;;;;6.51;79.54;99724.47;4930658;28;20082;-83
2023/12/01 04:30:36;;;;;;;70.80;37.55;;;;;;;6.44;79.36;99710.97;4910095;28;20085;-84
2023/12/01 04:33:13;;;;;;;74.63;35.92;;;;;;;6.53;79.32;99715.47;4901067;28;20054;-84
2023/12/01 04:35:40;;;;;;;76.78;39.40;;;;;;;6.48;79.55;99711.53;4915756;28;20065;-82
2023/12/01 04:38:08;;;;;;;78.30;38.03;;;;;;;6.42;80.27;99712.91;4927828;28;20129;-83
2023/12/01 04:40:36;;;;;;;74.78;38.33;;;;;;;6.44;80.41;99707.50;4915452;28;20051;-83
2023/12/01 04:43:04;;;;;;;76.35;36.55;;;;;;;6.50;80.15;99705.16;4930243;28;20057;-84
2023/12/01 04:45:33;;;;;;;78.95;40.28;;;;;;;6.52;79.93;99718.22;4917470;28;20329;-82
2023/12/01 04:47:59;;;;;;;78.90;40.58;;;;;;;6.56;79.51;99693.25;4929934;28;20050;-81
2023/12/01 04:50:30;;;;;;;77.65;39.45;;;;;;;6.52;79.28;99687.41;4936759;28;20460;-83
2023/12/01 04:53:00;;;;;;;81.18;39.83;;;;;;;6.44;79.92;99694.31;4923654;28;20198;-82
2023/12/01 04:55:29;;;;;;;77.63;39.25;;;;;;;6.46;79.56;99687.94;4934156;28;20379;-83
2023/12/01 04:57:59;;;;;;;76.20;39.63;;;;;;;6.48;79.89;99703.63;4934950;28;20133;-84
2023/12/01 05:00:26;;;;;;;77.68;40.13;;;;;;;6.50;79.19;99694.59;4934666;28;20039;-82
2023/12/01 05:03:04;;;;;;;81.85;42.08;;;;;;;5.97;79.34;99597.25;4928133;28;20493;-82
2023/12/01 05:05:40;;;;;;;76.70;40.05;;;;;;;5.80;79.57;99567.06;4922574;28;20082;-81
2023/12/01 05:08:09;;;;;;;80.43;39.63;;;;;;;6.05;80.00;99604.53;4908805;28;20073;-82
2023/12/01 05:10:44;;;;;;;76.30;38.88;;;;;;;6.14;80.44;99625.66;4912664;28;20216;-84
2023/12/01 05:13:15;;;;;;;76.78;40.25;;;;;;;5.55;79.94;99527.03;4939094;28;20689;-82
2023/12/01 05:15:43;;;;;;;78.20;40.28;;;;;;;5.93;79.19;99601.94;4942871;28;20440;-81
2023/12/01 05:18:12;;;;;;;80.90;38.95;;;;;;;6.38;79.84;99670.16;4924327;28;20497;-83
2023/12/01 05:20:40;;;;;;;77.82;40.17;;;;;;;5.88;80.34;99611.22;4934825;28;20524;-82
2023/12/01 05:23:10;;;;;;;73.80;38.42;;;;;;;5.13;80.27;99473.63;4935118;28;20452;-82
2023/12/01 05:25:41;;;;;;;85.25;40.88;;;;;;;6.32;80.26;99680.38;4935638;28;20050;-83
2023/12/01 05:28:11;;;;;;;78.65;38.90;;;;;;;5.43;80.44;99521.97;4934208;28;20617;-83
2023/12/01 05:30:41;;;;;;;80.55;38.83;;;;;;;5.67;80.50;99575.19;4935993;28;20057;-82
2023/12/01 05:33:08;;;;;;;78.00;39.22;;;;;;;5.76;80.19;99574.41;4936761;28;20062;-83
2023/12/01 05:35:37;;;;;;;73.63;39.33;;;;;;;6.49;80.52;99702.66;4940129;28;20082;-82
2023/12/01 05:38:05;;;;;;;82.50;40.63;;;;;;;6.12;80.23;99659.22;4928596;28;20051;-84
2023/12/01 05:40:37;;;;;;;79.57;39.83;;;;;;;6.12;79.28;99648.66;4910373;29;20070;-83
2023/12/01 05:43:06;;;;;;;89.03;42.88;;;;;;;6.43;79.29;99675.00;4925152;28;20650;-83
2023/12/01 05:45:35;;;;;;;75.40;38.28;;;;;;;6.63;79.12;99723.41;4929041;28;20109;-83
2023/12/01 05:48:06;;;;;;;80.53;40.90;;;;;;;6.51;79.91;99720.03;4929436;28;20552;-83
2023/12/01 05:50:34;;;;;;;93.45;43.13;;;;;;;6.17;79.95;99641.19;4934377;28;20054;-82
2023/12/01 05:53:06;;;;;;;83.88;41.13;;;;;;;6.41;80.48;99705.97;4941711;28;20069;-81
2023/12/01 05:55:40;;;;;;;92.72;43.42;;;;;;;5.94;80.09;99614.16;4933607;28;20420;-82
2023/12/01 05:58:15;;;;;;;77.50;40.60;;;;;;;5.89;80.15;99616.34;4903266;28;20256;-83
2023/12/01 06:00:42;;;;;;;85.93;42.00;;;;;;;6.45;80.29;99690.72;4893610;29;20491;-83
2023/12/01 06:03:11;;;;;;;87.60;41.35;;;;;;;6.49;80.01;99690.31;4911644;28;20057;-84
2023/12/01 06:05:39;;;;;;;87.10;43.03;;;;;;;5.29;80.83;99491.56;4906215;28;20054;-83
2023/12/01 06:08:09;;;;;;;89.78;43.58;;;;;;;5.64;80.96;99561.47;4916554;28;20051;-82
2023/12/01 06:10:37;;;;;;;85.10;42.92;;;;;;;6.37;81.00;99688.72;4941353;28;20544;-82
2023/12/01 06:13:04;;;;;;;92.50;44.35;;;;;;;6.46;81.08;99710.81;4939470;28;20253;-83
2023/12/01 06:15:31;;;;;;;83.60;43.83;;;;;;;6.37;80.86;99699.28;4939805;28;20491;-78
2023/12/01 06:18:01;;;;;;;96.20;44.83;;;;;;;6.31;81.22;99699.78;4931741;28;20999;-82
2023/12/01 06:20:30;;;;;;;86.32;43.25;;;;;;;5.84;81.64;99599.25;4892325;28;20062;-82
2023/12/01 06:23:17;;;;;;;87.15;43.60;;;;;;;6.37;81.45;99688.72;4913262;29;20395;-82
2023/12/01 06:25:46;;;;;;;91.25;43.90;;;;;;;6.33;81.52;99671.50;4907447;29;20059;-83
2023/12/01 06:28:13;;;;;;;87.00;44.53;;;;;;;6.43;81.32;99675.00;4907242;29;20143;-83
2023/12/01 06:30:40;;;;;;;95.78;46.22;;;;;;;6.34;80.61;99646.84;4899244;29;20048;-82
2023/12/01 06:33:07;;;;;;;85.97;43.83;;;;;;;6.51;81.07;99659.38;4904794;29;20052;-83
2023/12/01 06:35:38;;;;;;;89.10;42.67;;;;;;;6.19;81.78;99622.63;4885744;29;20063;-83
2023/12/01 06:38:07;;;;;;;90.80;43.15;;;;;;;6.40;80.91;99643.66;4898959;29;20044;-82
2023/12/01 06:40:37;;;;;;;87.22;42.22;;;;;;;6.48;80.85;99659.66;4897037;28;20133;-82
2023/12/01 06:43:09;;;;;;;94.40;44.88;;;;;;;6.56;80.81;99666.91;4937319;28;20159;-84
2023/12/01 06:45:39;;;;;;;88.80;46.45;;;;;;;6.33;80.84;99637.22;4946789;28;20065;-81
2023/12/01 06:48:07;;;;;;;84.95;40.78;;;;;;;6.56;81.13;99672.16;4919269;28;20043;-82
2023/12/01 06:50:33;;;;;;;95.18;42.97;;;;;;;6.53;81.32;99649.53;4936876;28;20142;-82
2023/12/01 06:53:00;;;;;;;96.15;43.25;;;;;;;6.52;81.54;99655.75;4917114;28;20058;-84
2023/12/01 06:55:28;;;;;;;85.97;43.08;;;;;;;6.45;81.26;99657.25;4927637;28;20837;-83
2023/12/01 06:57:56;;;;;;;94.25;46.58;;;;;;;6.56;80.97;99680.91;4940007;28;20055;-83
2023/12/01 07:00:29;;;;;;;100.95;46.47;;;;;;;6.63;81.49;99683.84;4939060;28;20560;-81
2023/12/01 07:03:04;;;;;;;99.43;44.45;;;;;;;6.64;81.12;99686.34;4936207;28;20145;-82
2023/12/01 07:05:33;;;;;;;93.93;46.05;;;;;;;6.70;81.17;99681.50;4930280;28;20055;-80
2023/12/01 07:08:01;;;;;;;87.53;43.30;;;;;;;6.60;80.76;99653.31;4941898;28;20433;-84
2023/12/01 07:10:28;;;;;;;90.05;44.88;;;;;;;6.52;80.58;99647.84;4924679;28;20487;-82
2023/12/01 07:12:59;;;;;;;94.07;43.53;;;;;;;6.55;80.94;99639.69;4914246;28;20685;-83
2023/12/01 07:15:31;;;;;;;97.35;40.88;;;;;;;6.41;81.32;99637.44;4927507;28;20050;-82
2023/12/01 07:17:58;;;;;;;90.63;43.05;;;;;;;6.73;80.77;99673.34;4931782;28;20259;-81
2023/12/01 07:20:25;;;;;;;92.70;43.45;;;;;;;6.62;81.05;99638.16;4918054;28;20494;-82
2023/12/01 07:22:53;;;;;;;87.93;42.55;;;;;;;6.43;80.85;99582.72;4936788;28;20575;-81
2023/12/01 07:25:21;;;;;;;91.18;42.33;;;;;;;6.30;80.32;99561.91;4926975;29;20117;-81
2023/12/01 07:27:58;;;;;;;92.05;42.45;;;;;;;6.77;80.22;99632.50;4921438;29;20087;-82
2023/12/01 07:30:31;;;;;;;104.75;46.13;;;;;;;6.50;79.71;99594.41;4881471;29;20512;-81
2023/12/01 07:33:04;;;;;;;95.22;41.70;;;;;;;6.81;80.32;99626.00;4923780;28;20516;-81
2023/12/01 07:35:31;;;;;;;90.15;43.50;;;;;;;6.72;79.76;99640.00;4945158;28;20057;-82
2023/12/01 07:37:58;;;;;;;88.43;40.10;;;;;;;6.79;80.29;99660.41;4912507;28;20043;-82
2023/12/01 07:40:25;;;;;;;87.90;41.22;;;;;;;6.67;80.73;99627.22;4914100;28;20073;-82
2023/12/01 07:42:56;;;;;;;94.57;42.42;;;;;;;6.84;80.64;99654.75;4934526;28;20528;-82
2023/12/01 07:45:26;;;;;;;80.40;40.78;;;;;;;6.89;80.72;99646.41;4919941;28;20130;-82
2023/12/01 07:47:54;;;;;;;100.53;44.75;;;;;;;6.92;80.52;99638.22;4899667;28;20133;-82
2023/12/01 07:50:23;;;;;;;103.90;43.15;;;;;;;6.70;80.26;99605.00;4930551;28;20051;-82
2023/12/01 07:52:51;;;;;;;96.68;47.92;;;;;;;6.88;81.15;99640.31;4938774;28;20074;-82
2023/12/01 07:55:22;;;;;;;99.47;45.78;;;;;;;7.02;80.74;99641.72;4939952;28;20555;-81
2023/12/01 07:57:49;;;;;;;101.70;45.40;;;;;;;7.16;80.36;99664.22;4945755;28;20246;-81
2023/12/01 08:00:16;;;;;;;94.15;45.03;;;;;;;7.03;80.23;99670.59;4948930;28;20344;-82
2023/12/01 08:02:46;;;;;;;94.93;45.20;;;;;;;7.02;79.83;99674.22;4940112;28;20078;-82
2023/12/01 08:05:14;;;;;;;100.13;41.28;;;;;;;7.02;79.92;99665.47;4904107;28;20059;-82
2023/12/01 08:07:53;;;;;;;97.50;43.20;;;;;;;6.95;79.89;99682.84;4912142;28;20067;-82
2023/12/01 08:10:28;;;;;;;104.25;43.65;;;;;;;6.57;80.46;99615.81;4913961;28;20140;-82
2023/12/01 08:12:58;;;;;;;106.47;44.55;;;;;;;6.95;80.55;99661.72;4906345;28;20047;-84
2023/12/01 08:15:31;;;;;;;104.63;47.00;;;;;;;6.97;80.32;99670.34;4927694;28;20139;-83
2023/12/01 08:17:59;;;;;;;;;;;;;;;6.96;80.45;99680.03;4957423;28;20086;-83
2023/12/01 08:20:32;;;;;;;107.82;46.80;;;;;;;6.98;80.05;99662.28;4936800;28;20268;-82
2023/12/01 08:22:59;;;;;;;98.97;43.95;;;;;;;6.89;80.50;99647.25;4945055;28;20134;-83
2023/12/01 08:25:27;;;;;;;100.53;45.85;;;;;;;6.54;80.32;99601.09;4934679;28;20155;-83
2023/12/01 08:27:57;;;;;;;94.63;44.15;;;;;;;7.02;79.67;99647.84;4933853;28;20051;-83
2023/12/01 08:30:27;;;;;;;93.72;43.25;;;;;;;6.78;80.32;99629.75;4947250;28;20113;-82
2023/12/01 08:32:56;;;;;;;98.18;47.67;;;;;;;6.52;80.05;99613.56;4954168;28;20109;-83
2023/12/01 08:35:25;;;;;;;107.90;46.00;;;;;;;6.81;80.40;99655.84;4957312;28;20157;-83
2023/12/01 08:37:52;;;;;;;99.47;45.70;;;;;;;6.90;80.24;99675.31;4959049;28;20319;-84
2023/12/01 08:40:19;;;;;;;97.55;42.42;;;;;;;6.97;79.87;99684.38;4957776;28;20544;-82
2023/12/01 08:42:52;;;;;;;96.93;44.50;;;;;;;6.81;80.06;99645.28;4946656;28;20062;-83
2023/12/01 08:45:20;;;;;;;105.80;46.55;;;;;;;7.06;79.65;99675.63;4944139;28;20058;-82
2023/12/01 08:47:46;;;;;;;95.63;44.63;;;;;;;7.00;80.03;99686.72;4944663;28;20051;-83
2023/12/01 08:50:19;;;;;;;99.43;44.47;;;;;;;6.99;79.64;99669.22;4929811;28;20125;-83
2023/12/01 08:52:47;;;;;;;99.40;46.08;;;;;;;6.74;79.99;99646.81;4913291;28;20472;-84
2023/12/01 08:55:14;;;;;;;113.25;46.65;;;;;;;6.99;80.68;99694.75;4911036;28;20051;-82
2023/12/01 08:57:40;;;;;;;105.32;47.70;;;;;;;6.94;80.24;99683.78;4881079;28;20053;-82
2023/12/01 09:00:08;;;;;;;111.00;47.97;;;;;;;7.00;80.77;99692.00;4899432;28;20511;-80
2023/12/01 09:02:41;;;;;;;122.15;48.58;;;;;;;6.85;80.15;99659.06;4908954;28;20079;-82
2023/12/01 09:05:09;;;;;;;113.45;47.97;;;;;;;7.08;79.91;99699.22;4924286;28;20476;-81
2023/12/01 09:07:36;;;;;;;120.65;46.67;;;;;;;7.20;79.95;99670.91;4936672;28;20395;-82
2023/12/01 09:10:03;;;;;;;112.65;48.28;;;;;;;7.17;80.21;99677.31;4922275;28;20066;-80
2023/12/01 09:12:29;;;;;;;106.70;42.95;;;;;;;7.18;79.45;99699.25;4936556;28;20505;-80
2023/12/01 09:14:56;;;;;;;102.82;45.05;;;;;;;7.03;79.88;99638.94;4938763;28;20516;-80
2023/12/01 09:17:23;;;;;;;107.18;45.10;;;;;;;7.03;80.00;99644.22;4915808;28;20500;-81
2023/12/01 09:19:50;;;;;;;105.47;44.83;;;;;;;7.15;79.96;99659.94;4934729;28;20058;-80
2023/12/01 09:22:20;;;;;;;106.55;46.80;;;;;;;7.17;80.35;99660.63;4945563;28;20053;-78
2023/12/01 09:24:47;;;;;;;113.95;48.67;;;;;;;7.00;80.35;99602.28;4926340;28;20057;-79
2023/12/01 09:27:14;;;;;;;114.93;46.55;;;;;;;7.18;80.53;99641.19;4942422;28;20043;-79
2023/12/01 09:29:41;;;;;;;110.78;41.03;;;;;;;7.15;79.82;99642.28;4944810;28;20141;-80
2023/12/01 09:32:08;;;;;;;108.88;46.22;;;;;;;7.19;80.04;99632.31;4935734;28;20099;-82
2023/12/01 09:34:35;;;;;;;114.10;46.30;;;;;;;7.00;80.12;99628.66;4927546;28;20058;-80
2023/12/01 09:37:02;;;;;;;114.90;47.13;;;;;;;6.89;80.16;99620.88;4937580;28;20066;-81
2023/12/01 09:39:29;;;;;;;98.55;44.83;;;;;;;7.04;80.48;99635.34;4942542;28;20042;-81
2023/12/01 09:41:57;;;;;;;118.80;47.10;;;;;;;6.91;80.37;99611.00;4920666;28;20055;-82
2023/12/01 09:44:24;;;;;;;117.35;49.30;;;;;;;7.22;80.51;99658.41;4939007;28;20707;-82
2023/12/01 09:46:58;;;;;;;115.15;48.65;;;;;;;7.36;80.28;99662.47;4911169;28;20261;-82
2023/12/01 09:49:24;;;;;;;116.85;50.53;;;;;;;7.40;79.72;99651.50;4936106;28;20392;-81
2023/12/01 09:51:54;;;;;;;121.22;47.20;;;;;;;7.30;79.53;99633.97;4919908;28;20129;-80
2023/12/01 09:54:29;;;;;;;116.07;47.10;;;;;;;7.41;79.37;99632.03;4906139;28;20171;-80
2023/12/01 09:57:06;;;;;;;122.70;49.58;;;;;;;7.44;79.04;99623.81;4942031;28;20499;-79
2023/12/01 09:59:35;;;;;;;121.50;50.50;;;;;;;7.32;79.28;99569.47;4937115;28;20112;-81
2023/12/01 10:02:03;;;;;;;113.60;46.15;;;;;;;7.65;79.81;99626.28;4937467;28;20578;-80
2023/12/01 10:04:32;;;;;;;111.40;44.08;;;;;;;7.55;78.84;99633.41;4941784;28;20488;-80
2023/12/01 10:07:00;;;;;;;102.82;39.53;;;;;;;7.72;78.26;99645.06;4941456;28;20133;-79
2023/12/01 10:09:32;;;;;;;98.80;41.25;;;;;;;7.70;78.14;99616.13;4949405;28;20476;-80
2023/12/01 10:12:09;;;;;;;95.95;38.50;;;;;;;7.84;78.41;99606.94;4951384;28;20142;-80
2023/12/01 10:14:37;;;;;;;87.88;37.55;;;;;;;7.45;77.54;99533.06;4946362;28;20050;-81
2023/12/01 10:17:07;;;;;;;94.47;40.60;;;;;;;7.65;77.45;99568.19;4937156;28;20047;-80
2023/12/01 10:19:45;;;;;;;92.50;37.55;;;;;;;7.78;77.88;99581.06;4941966;28;20050;-79
2023/12/01 10:22:16;;;;;;;;;;;;;;;7.79;78.06;99611.81;4943560;28;20046;-80
2023/12/01 10:25:05;;;;;;;91.88;38.95;;;;;;;7.49;77.76;99539.72;4949529;28;19926;-81
2023/12/01 10:27:32;;;;;;;106.60;41.08;;;;;;;7.80;78.16;99567.72;4934644;28;20054;-80
2023/12/01 10:30:14;;;;;;;94.10;40.05;;;;;;;7.98;78.73;99576.53;4941162;28;20051;-80
2023/12/01 10:32:42;;;;;;;93.57;40.72;;;;;;;8.08;78.24;99597.66;4943086;28;20042;-78
2023/12/01 10:35:11;;;;;;;100.20;40.83;;;;;;;7.96;77.60;99567.09;4933573;28;20062;-81
2023/12/01 10:37:38;;;;;;;93.57;40.10;;;;;;;8.10;77.53;99574.56;4916360;28;20113;-81
2023/12/01 10:40:10;;;;;;;100.35;40.42;;;;;;;8.10;77.21;99574.56;4940029;28;20424;-81
2023/12/01 10:42:40;;;;;;;92.57;42.78;;;;;;;8.16;77.49;99568.72;4937357;28;20055;-81
2023/12/01 10:45:09;;;;;;;110.68;45.67;;;;;;;8.21;77.34;99577.03;4934326;28;20117;-82
2023/12/01 10:47:44;;;;;;;91.65;40.55;;;;;;;8.33;77.22;99560.00;4938194;28;20070;-81
2023/12/01 10:50:12;;;;;;;92.20;38.15;;;;;;;8.26;77.02;99552.78;4946190;28;20133;-81
2023/12/01 10:52:46;;;;;;;96.97;42.08;;;;;;;8.39;76.84;99568.31;4942045;28;20431;-81
2023/12/01 10:55:14;;;;;;;94.45;42.15;;;;;;;8.27;76.42;99533.28;4944439;28;20078;-81
2023/12/01 10:57:45;;;;;;;101.80;42.95;;;;;;;7.99;76.14;99474.34;4929430;28;20141;-80
2023/12/01 11:00:36;;;;;;;103.57;43.95;;;;;;;8.48;77.02;99546.31;4938243;28;20402;-81
2023/12/01 11:03:04;;;;;;;102.00;42.88;;;;;;;8.48;76.52;99533.91;4935839;28;20149;-80
2023/12/01 11:05:36;;;;;;;102.72;43.70;;;;;;;8.37;76.52;99504.97;4930021;28;20054;-80
2023/12/01 11:08:06;;;;;;;;;;;;;;;8.37;77.34;99490.94;4919505;28;20062;-81
2023/12/01 11:10:45;;;;;;;112.72;45.55;;;;;;;8.74;76.45;99525.25;4909283;29;19922;-80
2023/12/01 11:13:40;;;;;;;120.80;49.30;;;;;;;8.73;75.92;99524.38;4927669;28;20047;-80
2023/12/01 11:16:08;;;;;;;110.25;47.05;;;;;;;8.75;76.96;99517.13;4938288;28;20411;-78
2023/12/01 11:18:35;;;;;;;108.85;44.97;;;;;;;8.77;76.48;99511.69;4938643;28;20050;-81
2023/12/01 11:21:05;;;;;;;109.93;46.75;;;;;;;8.71;76.30;99514.94;4947795;28;20058;-81
2023/12/01 11:23:35;;;;;;;106.55;45.50;;;;;;;8.74;76.04;99520.78;4938039;28;20042;-80
2023/12/01 11:26:11;;;;;;;99.97;45.78;;;;;;;8.72;76.20;99517.44;4942230;28;20805;-80
2023/12/01 11:31:28;;;;;;;101.15;46.75;;;;;;;8.89;75.91;99526.38;4936212;28;20634;-83
2023/12/01 11:33:58;;;;;;;97.55;43.97;;;;;;;8.73;76.45;99474.09;4908377;29;20491;-78
2023/12/01 11:36:28;;;;;;;108.47;47.42;;;;;;;8.88;75.78;99506.16;4925580;28;20146;-80